Venango Regional Airport
KFKL : now visible

Airfield :











YOU CAN JOIN US ON...

 
LOGIN :

Register | Disclaimer

   EN    FR    IT 

 









Legend :    VFR   Marginal VFR   IFR   Intensive IFR   Very Intensive IFR
Visi :
Ceiling :
>= 8 km
>= 3000ft
5 to 8 km
1000 to 3000 ft
1500m to 5 km
500 to 1000 ft
800 to 1500m
200 to 500 ft
< 800m
< 200 ft
Symbols :   Thunderstorms  Fog  Heavy snow  Heavy precipitations  Wind > 20 kt






- Airport Elevation : 1540 ft


KFKL - Venango Regional

CURRENT METAR :
  • 041156Z AUTO 35004KT 10SM CLR 03/03 A3021 RMK AO2 SLP239 T00280028 10044 20022 56001

EXPIRED METARs :
  • 041056Z AUTO 35003KT 10SM CLR 02/02 A3021 RMK AO2 SLP238 T00220022 FZRANO
  • 040956Z AUTO 05004KT 10SM CLR 03/03 A3020 RMK AO2 SLP235 T00280028

TAF KFKL
Valid from the 04 at 12:00 until the 05 at 12:00 UTC


041120Z 0412/0512 04005KT P6SM BKN150
FM050800 36003KT P6SM SKC
KZOB FIR / North America



MET'MAP, your aeronautical weather chart ! - Copyright ORBIFLY December 2007 - Disclaimer

ORBIFLY MET'MAP TEAM :

Programming & Development : Alexandra Zaïnal
Original concept : Baudouin d'Aumeries
Technical & hardware support : Manuel Goepfert
Assistance : Marc-Olivier Méhu




SOURCES & CREDITS :

   NOAA       Earth
Advisory